createdAt,value
2018-06-03T00:02:22.837Z,17.30
2018-06-03T00:04:51.198Z,17.30
2018-06-03T00:07:19.562Z,17.30
2018-06-03T00:09:47.964Z,17.30
2018-06-03T00:12:17.279Z,17.20
2018-06-03T00:14:46.466Z,17.30
2018-06-03T00:17:14.790Z,17.20
2018-06-03T00:19:43.142Z,17.20
2018-06-03T00:22:19.938Z,17.20
2018-06-03T00:24:48.309Z,17.20
2018-06-03T00:27:16.655Z,17.20
2018-06-03T00:29:45.072Z,17.20
2018-06-03T00:32:13.455Z,17.10
2018-06-03T00:34:41.853Z,17.10
2018-06-03T00:37:10.214Z,17.10
2018-06-03T00:39:38.563Z,17.10
2018-06-03T00:42:07.114Z,17.10
2018-06-03T00:44:35.468Z,17.10
2018-06-03T00:47:04.309Z,17.10
2018-06-03T00:49:32.657Z,17.10
2018-06-03T00:52:01.116Z,17.10
2018-06-03T00:54:29.481Z,17.10
2018-06-03T00:57:04.664Z,17.10
2018-06-03T00:59:33.118Z,17.20
2018-06-03T01:02:01.596Z,17.20
2018-06-03T01:04:29.998Z,17.20
2018-06-03T01:06:58.557Z,17.30
2018-06-03T01:09:27.750Z,17.30
2018-06-03T01:11:56.586Z,17.30
2018-06-03T01:14:25.539Z,17.30
2018-06-03T01:16:54.302Z,17.30
2018-06-03T01:19:22.700Z,17.30
2018-06-03T01:21:51.667Z,17.40
2018-06-03T01:24:20.188Z,17.40
2018-06-03T01:26:49.130Z,17.40
2018-06-03T01:29:18.265Z,17.40
2018-06-03T01:31:46.746Z,17.40
2018-06-03T01:34:15.122Z,17.50
2018-06-03T01:36:43.826Z,17.50
2018-06-03T01:39:12.839Z,17.50
2018-06-03T01:41:41.634Z,17.50
2018-06-03T01:44:10.878Z,17.50
2018-06-03T01:46:39.272Z,17.50
2018-06-03T01:49:08.261Z,17.60
2018-06-03T01:51:36.653Z,17.60
2018-06-03T01:54:04.994Z,17.60
2018-06-03T01:56:34.113Z,17.60
2018-06-03T01:59:02.475Z,17.60
2018-06-03T02:01:31.604Z,17.60
2018-06-03T02:03:59.973Z,17.60
2018-06-03T02:06:28.334Z,17.60
2018-06-03T02:08:56.768Z,17.60
2018-06-03T02:11:25.120Z,17.60
2018-06-03T02:13:53.495Z,17.60
2018-06-03T02:16:21.907Z,17.60
2018-06-03T02:18:50.267Z,17.60
2018-06-03T02:21:18.655Z,17.60
2018-06-03T02:23:47.113Z,17.70
2018-06-03T02:26:15.492Z,17.60
2018-06-03T02:28:44.092Z,17.60
2018-06-03T02:31:12.468Z,17.60
2018-06-03T02:33:40.854Z,17.60
2018-06-03T02:36:09.225Z,17.60
2018-06-03T02:38:37.607Z,17.50
2018-06-03T02:41:05.965Z,17.50
2018-06-03T02:43:35.132Z,17.40
2018-06-03T02:46:03.488Z,17.40
2018-06-03T02:48:31.855Z,17.40
2018-06-03T02:51:00.209Z,17.40
2018-06-03T02:53:28.551Z,17.40
2018-06-03T02:55:56.912Z,17.40
2018-06-03T02:58:25.439Z,17.50
2018-06-03T03:00:53.854Z,17.50
2018-06-03T03:03:22.233Z,17.50
2018-06-03T03:05:50.614Z,17.50
2018-06-03T03:08:18.960Z,17.60
2018-06-03T03:10:47.309Z,17.60
2018-06-03T03:13:15.763Z,17.60
2018-06-03T03:15:44.105Z,17.60
2018-06-03T03:18:12.452Z,17.60
2018-06-03T03:20:41.700Z,17.60
2018-06-03T03:23:10.050Z,17.60
2018-06-03T03:25:38.490Z,17.60
2018-06-03T03:28:06.836Z,17.60
2018-06-03T03:30:35.191Z,17.60
2018-06-03T03:33:03.539Z,17.60
2018-06-03T03:35:31.902Z,17.50
2018-06-03T03:38:00.258Z,17.60
2018-06-03T03:40:28.609Z,17.60
2018-06-03T03:42:56.994Z,17.60
2018-06-03T03:45:25.387Z,17.50
2018-06-03T03:47:53.764Z,17.50
2018-06-03T03:50:22.150Z,17.60
2018-06-03T03:52:50.510Z,17.60
2018-06-03T03:55:18.903Z,17.70
2018-06-03T03:57:47.260Z,17.70
2018-06-03T04:00:15.616Z,17.70
2018-06-03T04:02:44.734Z,17.70
2018-06-03T04:05:13.082Z,17.70
2018-06-03T04:07:41.510Z,17.70
2018-06-03T04:10:09.854Z,17.80
2018-06-03T04:15:13.623Z,17.80
2018-06-03T04:17:41.971Z,17.80
2018-06-03T04:20:10.314Z,17.70
2018-06-03T04:22:38.861Z,17.70
2018-06-03T04:25:07.213Z,17.70
2018-06-03T04:27:35.570Z,17.70
2018-06-03T04:30:04.701Z,17.70
2018-06-03T04:32:33.058Z,17.70
2018-06-03T04:35:02.243Z,17.80
2018-06-03T04:37:31.374Z,17.80
2018-06-03T04:39:59.766Z,17.80
2018-06-03T04:42:28.122Z,17.80
2018-06-03T04:44:56.530Z,17.80
2018-06-03T04:47:24.884Z,17.80
2018-06-03T04:49:53.347Z,17.80
2018-06-03T04:52:22.456Z,17.90
2018-06-03T04:54:50.942Z,17.90
2018-06-03T04:57:19.442Z,17.90
2018-06-03T04:59:47.818Z,18.00
2018-06-03T05:02:16.307Z,18.10
2018-06-03T05:04:44.794Z,18.10
2018-06-03T05:07:13.142Z,18.10
2018-06-03T05:09:41.583Z,18.20
2018-06-03T05:12:09.958Z,18.30
2018-06-03T05:14:38.312Z,18.40
2018-06-03T05:17:06.784Z,18.40
2018-06-03T05:19:35.134Z,18.50
2018-06-03T05:22:03.542Z,18.60
2018-06-03T05:24:31.919Z,18.60
2018-06-03T05:27:00.278Z,18.70
2018-06-03T05:29:28.625Z,18.80
2018-06-03T05:31:57.022Z,18.90
2018-06-03T05:34:25.350Z,18.90
2018-06-03T05:36:53.825Z,19.00
2018-06-03T05:39:22.171Z,18.90
2018-06-03T05:41:50.682Z,19.00
2018-06-03T05:44:19.041Z,19.10
2018-06-03T05:46:47.447Z,19.20
2018-06-03T05:49:15.977Z,19.20
2018-06-03T05:51:45.089Z,19.10
2018-06-03T05:54:13.454Z,19.10
2018-06-03T05:56:42.576Z,19.20
2018-06-03T05:59:10.942Z,19.10
2018-06-03T06:01:40.372Z,19.20
2018-06-03T06:04:08.709Z,19.20
2018-06-03T06:06:37.075Z,19.30
2018-06-03T06:09:05.581Z,19.40
2018-06-03T06:11:33.855Z,19.50
2018-06-03T06:14:02.230Z,19.50
2018-06-03T06:16:31.369Z,19.80
2018-06-03T06:18:59.774Z,19.70
2018-06-03T06:21:28.344Z,19.90
2018-06-03T06:23:56.708Z,19.90
2018-06-03T06:26:25.079Z,19.90
2018-06-03T06:28:53.434Z,19.70
2018-06-03T06:31:22.539Z,20.10
2018-06-03T06:33:50.895Z,20.10
2018-06-03T06:36:20.041Z,20.40
2018-06-03T06:38:48.415Z,20.40
2018-06-03T06:41:16.771Z,20.50
2018-06-03T06:43:45.155Z,20.50
2018-06-03T06:46:13.578Z,20.50
2018-06-03T06:48:41.938Z,20.70
2018-06-03T06:51:10.288Z,20.90
2018-06-03T06:53:38.711Z,20.80
2018-06-03T06:56:07.102Z,20.80
2018-06-03T06:58:35.426Z,20.80
2018-06-03T07:01:04.654Z,20.50
2018-06-03T07:03:33.021Z,20.50
2018-06-03T07:06:01.399Z,20.50
2018-06-03T07:08:29.913Z,20.50
2018-06-03T07:10:58.254Z,20.60
2018-06-03T07:13:26.597Z,20.70
2018-06-03T07:15:54.962Z,20.90
2018-06-03T07:18:23.314Z,21.10
2018-06-03T07:20:51.665Z,21.00
2018-06-03T07:23:20.118Z,21.10
2018-06-03T07:25:48.670Z,21.20
2018-06-03T07:28:17.019Z,21.30
2018-06-03T07:30:45.354Z,21.30
2018-06-03T07:33:13.721Z,21.40
2018-06-03T07:35:42.078Z,21.40
2018-06-03T07:38:10.437Z,21.50
2018-06-03T07:40:38.993Z,21.50
2018-06-03T07:43:07.368Z,21.60
2018-06-03T07:45:35.717Z,21.60
2018-06-03T07:48:04.071Z,21.90
2018-06-03T07:50:32.468Z,22.00
2018-06-03T07:53:00.911Z,22.00
2018-06-03T07:55:29.533Z,22.00
2018-06-03T07:57:57.860Z,21.90
2018-06-03T08:00:27.002Z,21.70
2018-06-03T08:02:55.393Z,21.70
2018-06-03T08:05:23.751Z,21.80
2018-06-03T08:07:52.128Z,22.10
2018-06-03T08:10:20.489Z,22.40
2018-06-03T08:12:48.853Z,22.60
2018-06-03T08:15:17.998Z,22.50
2018-06-03T08:17:46.342Z,22.50
2018-06-03T08:20:14.903Z,22.40
2018-06-03T08:22:43.264Z,22.30
2018-06-03T08:25:11.713Z,22.20
2018-06-03T08:27:40.107Z,22.10
2018-06-03T08:30:08.449Z,22.00
2018-06-03T08:32:36.833Z,22.00
2018-06-03T08:35:05.376Z,22.10
2018-06-03T08:37:33.820Z,22.30
2018-06-03T08:40:02.173Z,22.60
2018-06-03T08:42:30.518Z,22.60
2018-06-03T08:44:59.630Z,22.70
2018-06-03T08:47:28.772Z,22.80
2018-06-03T08:49:57.162Z,22.80
2018-06-03T08:52:27.803Z,22.80
2018-06-03T08:54:56.655Z,23.00
2018-06-03T08:57:25.040Z,23.10
2018-06-03T08:59:53.389Z,23.20
2018-06-03T09:02:22.505Z,23.70
2018-06-03T09:04:50.898Z,23.70
2018-06-03T09:07:19.270Z,24.10
2018-06-03T09:09:47.639Z,24.20
2018-06-03T09:12:15.990Z,24.10
2018-06-03T09:14:45.136Z,24.00
2018-06-03T09:17:13.485Z,24.00
2018-06-03T09:19:41.846Z,24.10
2018-06-03T09:22:10.962Z,23.70
2018-06-03T09:24:39.363Z,23.70
2018-06-03T09:27:07.723Z,23.60
2018-06-03T09:29:36.279Z,23.40
2018-06-03T09:32:04.678Z,23.30
2018-06-03T09:34:33.828Z,23.30
2018-06-03T09:37:02.259Z,23.30
2018-06-03T09:39:30.680Z,23.60
2018-06-03T09:41:59.143Z,23.70
2018-06-03T09:44:27.605Z,23.80
2018-06-03T09:46:55.906Z,24.20
2018-06-03T09:49:24.297Z,24.60
2018-06-03T09:51:52.643Z,24.80
2018-06-03T09:54:21.947Z,25.20
2018-06-03T09:56:50.564Z,25.10
2018-06-03T09:59:18.923Z,25.20
2018-06-03T10:01:47.299Z,25.00
2018-06-03T10:04:16.536Z,25.10
2018-06-03T10:06:45.291Z,25.30
2018-06-03T10:09:13.653Z,25.70
2018-06-03T10:11:42.754Z,25.70
2018-06-03T10:14:12.034Z,25.90
2018-06-03T10:16:42.135Z,25.90
2018-06-03T10:19:10.528Z,25.80
2018-06-03T10:21:39.653Z,26.20
2018-06-03T10:24:08.179Z,26.10
2018-06-03T10:26:36.538Z,26.30
2018-06-03T10:29:04.903Z,26.00
2018-06-03T10:31:33.326Z,26.30
2018-06-03T10:34:02.656Z,26.30
2018-06-03T10:36:31.804Z,26.30
2018-06-03T10:39:01.200Z,26.40
2018-06-03T10:41:29.558Z,26.40
2018-06-03T10:43:58.006Z,26.70
2018-06-03T10:46:26.465Z,27.00
2018-06-03T10:48:54.837Z,27.20
2018-06-03T10:51:23.216Z,27.40
2018-06-03T10:53:51.654Z,27.10
2018-06-03T10:56:20.078Z,27.60
2018-06-03T10:58:48.444Z,28.00
2018-06-03T11:01:16.877Z,28.10
2018-06-03T11:03:46.017Z,28.30
2018-06-03T11:06:14.363Z,28.30
2018-06-03T11:08:42.722Z,28.20
2018-06-03T11:11:11.172Z,28.20
2018-06-03T11:13:39.566Z,27.60
2018-06-03T11:16:08.060Z,27.70
2018-06-03T11:18:36.498Z,28.10
2018-06-03T11:21:04.862Z,28.00
2018-06-03T11:23:33.346Z,28.20
2018-06-03T11:26:01.725Z,28.30
2018-06-03T11:28:30.127Z,28.20
2018-06-03T11:30:58.482Z,28.60
2018-06-03T11:33:26.825Z,28.60
2018-06-03T11:35:56.064Z,28.20
2018-06-03T11:38:24.420Z,28.20
2018-06-03T11:40:52.758Z,28.00
2018-06-03T11:43:21.251Z,27.60
2018-06-03T11:45:52.346Z,27.10
2018-06-03T11:48:20.946Z,26.60
2018-06-03T11:50:49.279Z,26.40
2018-06-03T11:53:17.637Z,26.40
2018-06-03T11:55:46.746Z,26.10
2018-06-03T11:58:27.866Z,26.00
2018-06-03T12:00:56.290Z,26.00
2018-06-03T12:03:24.652Z,26.00
2018-06-03T12:05:53.202Z,26.00
2018-06-03T12:08:21.559Z,26.10
2018-06-03T12:10:49.996Z,25.90
2018-06-03T12:13:18.356Z,25.70
2018-06-03T12:15:46.757Z,25.50
2018-06-03T12:18:15.118Z,25.40
2018-06-03T12:20:43.474Z,25.10
2018-06-03T12:23:11.863Z,25.00
2018-06-03T12:25:40.292Z,24.80
2018-06-03T12:28:08.636Z,24.70
2018-06-03T12:30:37.015Z,24.50
2018-06-03T12:33:05.438Z,24.30
2018-06-03T12:35:33.834Z,24.00
2018-06-03T12:38:02.964Z,23.60
2018-06-03T12:40:31.395Z,23.60
2018-06-03T12:43:00.561Z,23.30
2018-06-03T12:45:28.914Z,23.30
2018-06-03T12:47:58.155Z,23.40
2018-06-03T12:50:27.955Z,23.20
2018-06-03T12:52:56.352Z,23.20
2018-06-03T12:55:24.839Z,23.20
2018-06-03T12:57:54.172Z,23.20
2018-06-03T13:00:22.550Z,23.20
2018-06-03T13:02:50.983Z,23.10
2018-06-03T13:05:19.435Z,23.10
2018-06-03T13:07:47.850Z,23.00
2018-06-03T13:10:16.303Z,23.10
2018-06-03T13:12:44.671Z,23.20
2018-06-03T13:15:13.025Z,23.20
2018-06-03T13:17:41.385Z,23.20
2018-06-03T13:20:10.410Z,23.10
2018-06-03T13:22:38.760Z,23.20
2018-06-03T13:25:07.903Z,23.10
2018-06-03T13:27:36.251Z,23.10
2018-06-03T13:30:04.655Z,23.20
2018-06-03T13:32:33.038Z,23.20
2018-06-03T13:35:01.389Z,23.30
2018-06-03T13:37:29.822Z,23.30
2018-06-03T13:39:58.174Z,23.30
2018-06-03T13:42:26.676Z,23.40
2018-06-03T13:44:55.026Z,23.30
2018-06-03T13:47:23.376Z,23.40
2018-06-03T13:49:52.535Z,23.50
2018-06-03T13:52:20.891Z,23.50
2018-06-03T13:54:49.258Z,23.50
2018-06-03T13:57:17.711Z,23.60
2018-06-03T13:59:46.222Z,23.50
2018-06-03T14:02:14.588Z,23.60
2018-06-03T14:04:42.947Z,23.70
2018-06-03T14:07:12.065Z,23.80
2018-06-03T14:09:40.464Z,23.80
2018-06-03T14:12:08.819Z,23.90
2018-06-03T14:14:37.241Z,24.00
2018-06-03T14:17:05.623Z,24.20
2018-06-03T14:19:33.974Z,24.20
2018-06-03T14:22:03.208Z,24.20
2018-06-03T14:24:31.570Z,24.20
2018-06-03T14:27:00.020Z,24.40
2018-06-03T14:29:29.158Z,24.40
2018-06-03T14:31:57.611Z,24.40
2018-06-03T14:34:25.913Z,24.40
2018-06-03T14:36:54.349Z,24.40
2018-06-03T14:39:23.481Z,25.10
2018-06-03T14:41:51.845Z,25.00
2018-06-03T14:44:20.342Z,25.30
2018-06-03T14:46:48.716Z,25.30
2018-06-03T14:49:17.072Z,25.40
2018-06-03T14:51:45.426Z,25.40
2018-06-03T14:54:14.620Z,25.70
2018-06-03T14:56:42.996Z,25.60
2018-06-03T14:59:11.290Z,25.80
2018-06-03T15:01:39.667Z,26.00
2018-06-03T15:04:08.123Z,26.40
2018-06-03T15:06:37.354Z,27.50
2018-06-03T15:09:05.697Z,27.50
2018-06-03T15:11:34.255Z,27.70
2018-06-03T15:14:03.411Z,27.70
2018-06-03T15:16:31.774Z,27.70
2018-06-03T15:19:00.189Z,27.60
2018-06-03T15:21:28.642Z,27.30
2018-06-03T15:23:57.126Z,27.00
2018-06-03T15:26:26.291Z,26.70
2018-06-03T15:28:54.742Z,26.60
2018-06-03T15:31:23.128Z,26.60
2018-06-03T15:33:51.508Z,26.40
2018-06-03T15:36:19.875Z,26.20
2018-06-03T15:38:48.445Z,25.90
2018-06-03T15:41:16.863Z,25.70
2018-06-03T15:43:45.322Z,25.50
2018-06-03T15:46:13.752Z,25.50
2018-06-03T15:48:42.161Z,25.50
2018-06-03T15:51:10.579Z,25.60
2018-06-03T15:53:38.943Z,25.50
2018-06-03T15:56:07.336Z,25.50
2018-06-03T15:58:35.701Z,25.30
2018-06-03T16:01:04.846Z,25.50
2018-06-03T16:03:34.166Z,25.60
2018-06-03T16:06:02.626Z,25.60
2018-06-03T16:08:31.046Z,25.50
2018-06-03T16:10:59.550Z,25.50
2018-06-03T16:13:28.672Z,26.20
2018-06-03T16:15:57.088Z,26.10
2018-06-03T16:18:25.483Z,26.50
2018-06-03T16:20:53.855Z,26.60
2018-06-03T16:23:22.304Z,26.70
2018-06-03T16:25:50.671Z,26.80
2018-06-03T16:28:19.131Z,27.00
2018-06-03T16:30:47.645Z,27.30
2018-06-03T16:33:16.007Z,27.20
2018-06-03T16:35:44.407Z,27.00
2018-06-03T16:38:12.749Z,26.80
2018-06-03T16:40:41.139Z,26.30
2018-06-03T16:43:09.490Z,25.90
2018-06-03T16:45:37.895Z,25.60
2018-06-03T16:48:06.279Z,25.40
2018-06-03T16:50:34.650Z,25.20
2018-06-03T16:53:03.081Z,24.90
2018-06-03T16:55:31.441Z,24.70
2018-06-03T16:57:59.800Z,24.50
2018-06-03T17:00:28.239Z,24.40
2018-06-03T17:02:57.362Z,24.20
2018-06-03T17:05:25.735Z,24.10
2018-06-03T17:07:54.304Z,24.10
2018-06-03T17:10:23.551Z,23.90
2018-06-03T17:12:51.955Z,23.80
2018-06-03T17:15:20.361Z,23.80
2018-06-03T17:17:49.495Z,23.70
2018-06-03T17:20:17.933Z,23.60
2018-06-03T17:22:46.264Z,23.60
2018-06-03T17:25:14.893Z,23.50
2018-06-03T17:27:43.236Z,23.50
2018-06-03T17:30:11.595Z,23.50
2018-06-03T17:32:39.962Z,23.50
2018-06-03T17:35:08.309Z,23.60
2018-06-03T17:37:37.720Z,24.00
2018-06-03T17:40:06.148Z,24.00
2018-06-03T17:42:34.520Z,24.40
2018-06-03T17:45:03.035Z,24.80
2018-06-03T17:47:31.408Z,25.20
2018-06-03T17:49:59.877Z,25.60
2018-06-03T17:52:28.257Z,25.90
2018-06-03T17:54:56.636Z,26.10
2018-06-03T17:57:25.172Z,26.30
2018-06-03T17:59:53.687Z,26.70
2018-06-03T18:02:22.067Z,27.20
2018-06-03T18:04:50.427Z,27.60
2018-06-03T18:07:18.923Z,27.50
2018-06-03T18:09:47.296Z,27.90
2018-06-03T18:12:16.603Z,28.10
2018-06-03T18:14:45.009Z,28.00
2018-06-03T18:17:13.402Z,27.80
2018-06-03T18:19:41.731Z,27.90
2018-06-03T18:22:10.098Z,28.00
2018-06-03T18:24:38.450Z,28.00
2018-06-03T18:27:07.584Z,27.60
2018-06-03T18:29:35.953Z,27.60
2018-06-03T18:32:04.362Z,27.10
2018-06-03T18:34:32.707Z,26.60
2018-06-03T18:37:01.078Z,26.00
2018-06-03T18:39:30.202Z,25.40
2018-06-03T18:41:58.828Z,25.40
2018-06-03T18:44:27.681Z,25.30
2018-06-03T18:46:56.064Z,25.20
2018-06-03T18:49:24.406Z,25.00
2018-06-03T18:51:52.841Z,24.80
2018-06-03T18:54:21.313Z,24.70
2018-06-03T18:56:49.877Z,24.50
2018-06-03T18:59:18.292Z,24.30
2018-06-03T19:01:46.653Z,24.10
2018-06-03T19:04:15.018Z,23.90
2018-06-03T19:06:43.388Z,23.70
2018-06-03T19:09:11.903Z,23.40
2018-06-03T19:11:40.368Z,23.20
2018-06-03T19:14:08.738Z,23.00
2018-06-03T19:16:37.113Z,22.80
2018-06-03T19:19:05.572Z,22.70
2018-06-03T19:21:34.691Z,22.30
2018-06-03T19:24:03.067Z,22.30
2018-06-03T19:26:31.519Z,22.20
2018-06-03T19:28:59.904Z,22.00
2018-06-03T19:31:29.152Z,21.80
2018-06-03T19:33:57.502Z,21.70
2018-06-03T19:36:25.858Z,21.70
2018-06-03T19:38:54.983Z,21.50
2018-06-03T19:41:23.361Z,21.50
2018-06-03T19:43:51.835Z,21.50
2018-06-03T19:46:20.946Z,21.40
2018-06-03T19:48:49.631Z,21.30
2018-06-03T19:51:18.068Z,21.30
2018-06-03T19:53:46.429Z,21.30
2018-06-03T19:56:14.817Z,21.40
2018-06-03T19:58:43.198Z,21.40
2018-06-03T20:01:12.194Z,21.30
2018-06-03T20:03:40.612Z,21.30
2018-06-03T20:06:08.919Z,21.30
2018-06-03T20:08:37.279Z,21.30
2018-06-03T20:11:05.636Z,21.20
2018-06-03T20:13:34.759Z,21.10
2018-06-03T20:16:03.122Z,21.10
2018-06-03T20:18:31.634Z,21.00
2018-06-03T20:21:00.102Z,20.90
2018-06-03T20:23:28.454Z,20.70
2018-06-03T20:25:56.826Z,20.60
2018-06-03T20:28:25.958Z,20.40
2018-06-03T20:30:54.344Z,20.40
2018-06-03T20:33:22.810Z,20.30
2018-06-03T20:35:51.191Z,20.30
2018-06-03T20:38:19.746Z,20.30
2018-06-03T20:40:48.888Z,20.20
2018-06-03T20:43:18.149Z,20.20
2018-06-03T20:45:47.263Z,20.10
2018-06-03T20:48:15.630Z,20.10
2018-06-03T20:50:43.994Z,20.10
2018-06-03T20:53:13.228Z,19.90
2018-06-03T20:55:41.575Z,19.90
2018-06-03T20:58:10.762Z,19.80
2018-06-03T21:00:39.338Z,19.80
2018-06-03T21:03:07.711Z,19.70
2018-06-03T21:05:36.159Z,19.70
2018-06-03T21:08:04.525Z,19.70
2018-06-03T21:10:32.879Z,19.70
2018-06-03T21:13:01.992Z,19.70
2018-06-03T21:15:30.461Z,19.70
2018-06-03T21:17:59.587Z,19.70
2018-06-03T21:20:27.936Z,19.70
2018-06-03T21:22:57.065Z,19.70
2018-06-03T21:25:25.422Z,19.70
2018-06-03T21:27:53.887Z,19.70
2018-06-03T21:30:23.000Z,19.70
2018-06-03T21:32:51.480Z,19.60
2018-06-03T21:35:19.872Z,19.70
2018-06-03T21:37:48.221Z,19.60
2018-06-03T21:40:18.453Z,19.60
2018-06-03T21:42:47.660Z,19.50
2018-06-03T21:45:16.792Z,19.50
2018-06-03T21:47:45.150Z,19.50
2018-06-03T21:50:13.725Z,19.50
2018-06-03T21:52:42.087Z,19.40
2018-06-03T21:55:11.222Z,19.40
2018-06-03T21:57:40.526Z,19.40
2018-06-03T22:00:09.019Z,19.30
2018-06-03T22:02:37.391Z,19.30
2018-06-03T22:05:05.863Z,19.30
2018-06-03T22:07:34.284Z,19.30
2018-06-03T22:10:02.813Z,19.30
2018-06-03T22:12:31.194Z,19.20
2018-06-03T22:14:59.530Z,19.20
2018-06-03T22:17:27.900Z,19.20
2018-06-03T22:19:56.519Z,19.20
2018-06-03T22:22:25.632Z,19.20
2018-06-03T22:24:54.000Z,19.20
2018-06-03T22:27:22.420Z,19.20
2018-06-03T22:29:50.871Z,19.10
2018-06-03T22:32:19.333Z,19.10
2018-06-03T22:34:49.369Z,19.00
2018-06-03T22:37:17.848Z,19.00
2018-06-03T22:39:46.972Z,18.90
2018-06-03T22:42:15.350Z,18.90
2018-06-03T22:44:43.800Z,18.90
2018-06-03T22:47:12.237Z,18.80
2018-06-03T22:49:40.645Z,18.90
2018-06-03T22:52:09.789Z,18.80
2018-06-03T22:54:38.158Z,18.80
2018-06-03T22:57:06.520Z,18.80
2018-06-03T22:59:34.883Z,18.80
2018-06-03T23:02:04.015Z,18.80
2018-06-03T23:04:32.559Z,18.80
2018-06-03T23:07:00.914Z,18.70
2018-06-03T23:09:29.339Z,18.70
2018-06-03T23:11:57.770Z,18.70
2018-06-03T23:14:27.354Z,18.60
2018-06-03T23:16:55.956Z,18.60
2018-06-03T23:19:24.376Z,18.60
2018-06-03T23:21:52.997Z,18.60
2018-06-03T23:24:21.369Z,18.60
2018-06-03T23:26:50.055Z,18.50
2018-06-03T23:29:18.944Z,18.50
2018-06-03T23:31:47.286Z,18.50
2018-06-03T23:34:16.415Z,18.50
2018-06-03T23:36:44.794Z,18.40
2018-06-03T23:39:13.362Z,18.40
2018-06-03T23:41:43.118Z,18.30
2018-06-03T23:44:11.522Z,18.30
2018-06-03T23:46:40.485Z,18.30
2018-06-03T23:49:08.842Z,18.30
2018-06-03T23:51:37.942Z,18.20
2018-06-03T23:54:06.303Z,18.20
2018-06-03T23:56:34.920Z,18.20
2018-06-03T23:59:03.348Z,18.20
